createdAt,value
2018-08-10T00:00:05.243Z,43.9
2018-08-10T00:00:55.022Z,43.9
2018-08-10T00:01:45.368Z,43.8
2018-08-10T00:02:34.834Z,43.9
2018-08-10T00:03:25.181Z,43.8
2018-08-10T00:04:15.518Z,43.9
2018-08-10T00:05:05.389Z,43.8
2018-08-10T00:05:55.445Z,43.8
2018-08-10T00:06:45.752Z,43.8
2018-08-10T00:07:35.876Z,43.8
2018-08-10T00:08:24.806Z,43.8
2018-08-10T00:09:15.984Z,43.8
2018-08-10T00:10:05.709Z,43.8
2018-08-10T00:10:55.506Z,43.8
2018-08-10T00:11:45.020Z,43.8
2018-08-10T00:12:35.893Z,43.8
2018-08-10T00:13:25.670Z,43.8
2018-08-10T00:14:16.319Z,43.8
2018-08-10T00:15:06.148Z,43.8
2018-08-10T00:15:55.983Z,43.8
2018-08-10T00:16:46.216Z,43.8
2018-08-10T00:17:36.276Z,43.8
2018-08-10T00:18:26.078Z,43.8
2018-08-10T00:37:26.129Z,43.6
2018-08-10T00:38:15.914Z,43.6
2018-08-10T00:39:06.256Z,43.6
2018-08-10T00:39:56.327Z,43.6
2018-08-10T00:40:46.374Z,43.6
2018-08-10T00:41:35.871Z,43.6
2018-08-10T00:42:26.707Z,43.6
2018-08-10T00:43:16.623Z,43.6
2018-08-10T00:44:06.681Z,43.6
2018-08-10T00:44:56.826Z,43.6
2018-08-10T00:45:46.756Z,43.6
2018-08-10T00:46:36.853Z,43.6
2018-08-10T00:47:26.362Z,43.6
2018-08-10T00:48:16.457Z,43.6
2018-08-10T00:49:06.239Z,43.6
2018-08-10T00:49:56.979Z,43.5
2018-08-10T00:50:46.354Z,43.5
2018-08-10T00:51:37.231Z,43.5
2018-08-10T00:52:27.262Z,43.5
2018-08-10T00:53:17.106Z,43.4
2018-08-10T00:54:06.925Z,43.5
2018-08-10T00:54:57.268Z,43.5
2018-08-10T00:55:47.575Z,43.4
2018-08-10T00:56:37.070Z,43.4
2018-08-10T00:57:27.466Z,43.4
2018-08-10T00:58:17.960Z,43.4
2018-08-10T00:59:07.579Z,43.4
2018-08-10T00:59:57.910Z,43.4
2018-08-10T01:00:47.155Z,43.5
2018-08-10T01:01:37.477Z,43.4
2018-08-10T01:02:27.343Z,43.4
2018-08-10T01:03:18.148Z,43.4
2018-08-10T01:04:07.191Z,43.4
2018-08-10T01:04:57.835Z,43.4
2018-08-10T01:05:47.588Z,43.4
2018-08-10T01:06:37.901Z,43.4
2018-08-10T01:07:27.356Z,43.4
2018-08-10T01:08:17.254Z,43.4
2018-08-10T01:09:08.025Z,43.4
2018-08-10T01:09:58.442Z,43.4
2018-08-10T01:10:48.436Z,43.4
2018-08-10T01:11:38.490Z,43.4
2018-08-10T01:12:28.519Z,43.4
2018-08-10T01:13:18.942Z,43.4
2018-08-10T01:14:09.214Z,43.4
2018-08-10T01:14:58.767Z,43.4
2018-08-10T01:15:48.869Z,43.4
2018-08-10T01:16:39.338Z,43.3
2018-08-10T01:17:29.174Z,43.3
2018-08-10T01:18:19.021Z,43.3
2018-08-10T01:19:10.575Z,43.3
2018-08-10T01:19:59.430Z,43.3
2018-08-10T01:20:49.698Z,43.3
2018-08-10T01:21:39.241Z,43.3
2018-08-10T01:22:29.378Z,43.3
2018-08-10T01:23:19.686Z,43.3
2018-08-10T01:24:09.821Z,43.3
2018-08-10T01:24:59.571Z,43.3
2018-08-10T01:25:50.014Z,43.3
2018-08-10T01:26:39.948Z,43.3
2018-08-10T01:27:30.197Z,43.3
2018-08-10T01:28:19.712Z,43.3
2018-08-10T01:29:09.631Z,43.3
2018-08-10T01:30:00.561Z,43.3
2018-08-10T01:30:49.969Z,43.3
2018-08-10T01:31:39.788Z,43.3
2018-08-10T01:32:30.160Z,43.3
2018-08-10T01:33:19.666Z,43.3
2018-08-10T01:34:09.983Z,43.2
2018-08-10T01:35:00.733Z,43.2
2018-08-10T01:35:50.140Z,43.2
2018-08-10T01:36:40.451Z,43.2
2018-08-10T01:37:30.295Z,43.2
2018-08-10T01:38:20.809Z,43.2
2018-08-10T01:39:10.951Z,43.2
2018-08-10T01:40:15.271Z,43.2
2018-08-10T01:41:05.876Z,43.2
2018-08-10T01:41:40.861Z,43.1
2018-08-10T01:42:30.921Z,43.2
2018-08-10T01:43:20.475Z,43.1
2018-08-10T01:44:11.002Z,43.1
2018-08-10T01:45:01.343Z,43.1
2018-08-10T01:45:51.388Z,43.1
2018-08-10T01:46:54.748Z,43.1
2018-08-10T01:47:31.224Z,43.1
2018-08-10T01:48:21.294Z,43.1
2018-08-10T01:49:11.630Z,43.1
2018-08-10T01:50:01.730Z,43.1
2018-08-10T01:50:51.778Z,43.1
2018-08-10T01:51:41.817Z,43.1
2018-08-10T01:52:31.672Z,43.1
2018-08-10T01:53:22.227Z,43.1
2018-08-10T01:54:11.476Z,43.1
2018-08-10T01:55:01.582Z,43.1
2018-08-10T01:56:06.902Z,43.1
2018-08-10T01:56:42.221Z,43.1
2018-08-10T01:57:32.015Z,43.1
2018-08-10T01:58:22.396Z,43
2018-08-10T01:59:11.987Z,43.1
2018-08-10T02:00:01.504Z,43.1
2018-08-10T02:00:51.488Z,43.1
2018-08-10T02:01:42.109Z,43.1
2018-08-10T02:02:32.175Z,43
2018-08-10T02:03:21.970Z,43
2018-08-10T02:04:12.574Z,43
2018-08-10T02:05:02.976Z,43
2018-08-10T02:05:53.044Z,43
2018-08-10T02:06:43.316Z,43
2018-08-10T02:07:32.854Z,43
2018-08-10T02:08:22.616Z,43
2018-08-10T02:09:12.686Z,43
2018-08-10T02:10:03.305Z,42.9
2018-08-10T02:10:53.395Z,43
2018-08-10T02:11:43.454Z,42.9
2018-08-10T02:12:33.057Z,43
2018-08-10T02:13:22.998Z,43
2018-08-10T02:15:03.907Z,42.9
2018-08-10T02:15:53.845Z,42.9
2018-08-10T02:16:43.545Z,42.9
2018-08-10T02:17:33.320Z,42.9
2018-08-10T02:18:23.927Z,42.9
2018-08-10T02:19:14.125Z,42.9
2018-08-10T02:20:04.045Z,42.9
2018-08-10T02:20:54.190Z,42.9
2018-08-10T02:21:44.152Z,42.9
2018-08-10T02:22:34.301Z,42.9
2018-08-10T02:23:24.302Z,42.9
2018-08-10T02:24:14.346Z,42.9
2018-08-10T02:25:19.114Z,42.9
2018-08-10T02:25:54.290Z,42.9
2018-08-10T02:26:44.543Z,42.9
2018-08-10T02:27:34.438Z,42.9
2018-08-10T02:28:24.468Z,42.9
2018-08-10T02:29:14.253Z,42.9
2018-08-10T02:30:04.853Z,42.9
2018-08-10T02:30:54.569Z,42.9
2018-08-10T02:31:45.031Z,42.8
2018-08-10T02:32:34.800Z,42.9
2018-08-10T02:33:24.784Z,42.8
2018-08-10T02:34:14.578Z,42.8
2018-08-10T02:35:04.423Z,42.8
2018-08-10T02:35:55.122Z,42.8
2018-08-10T02:36:44.488Z,42.8
2018-08-10T02:37:35.191Z,42.8
2018-08-10T02:38:25.235Z,42.9
2018-08-10T02:39:15.295Z,42.8
2018-08-10T02:40:05.146Z,42.8
2018-08-10T02:40:54.878Z,42.8
2018-08-10T02:41:45.040Z,42.8
2018-08-10T02:42:35.636Z,42.8
2018-08-10T02:43:25.165Z,42.8
2018-08-10T02:44:15.212Z,42.8
2018-08-10T02:45:05.988Z,42.8
2018-08-10T02:45:55.224Z,42.8
2018-08-10T02:46:45.560Z,42.8
2018-08-10T02:47:35.729Z,42.8
2018-08-10T02:48:25.248Z,42.8
2018-08-10T02:49:15.873Z,42.8
2018-08-10T02:50:20.443Z,42.7
2018-08-10T02:50:55.421Z,42.8
2018-08-10T02:51:45.326Z,42.8
2018-08-10T02:52:35.353Z,42.8
2018-08-10T02:53:25.724Z,42.8
2018-08-10T02:54:15.667Z,42.7
2018-08-10T02:55:06.343Z,42.7
2018-08-10T02:55:56.393Z,42.7
2018-08-10T02:56:46.326Z,42.7
2018-08-10T02:57:36.974Z,42.7
2018-08-10T02:58:27.237Z,42.7
2018-08-10T02:59:17.073Z,42.7
2018-08-10T03:00:06.075Z,42.7
2018-08-10T03:00:56.111Z,42.7
2018-08-10T03:01:47.129Z,42.7
2018-08-10T03:02:36.602Z,42.7
2018-08-10T03:03:27.184Z,42.7
2018-08-10T03:04:17.219Z,42.7
2018-08-10T03:05:06.486Z,42.6
2018-08-10T03:05:56.792Z,42.6
2018-08-10T03:06:47.455Z,42.6
2018-08-10T03:07:37.759Z,42.7
2018-08-10T03:08:27.257Z,42.7
2018-08-10T03:09:17.342Z,42.6
2018-08-10T03:10:07.895Z,42.6
2018-08-10T03:10:57.523Z,42.6
2018-08-10T03:12:02.199Z,42.6
2018-08-10T03:12:38.125Z,42.6
2018-08-10T03:13:27.702Z,42.6
2018-08-10T03:14:32.631Z,42.6
2018-08-10T03:15:08.345Z,42.6
2018-08-10T03:16:13.146Z,42.6
2018-08-10T03:16:48.068Z,42.6
2018-08-10T03:17:38.288Z,42.6
2018-08-10T03:18:27.802Z,42.6
2018-08-10T03:19:18.697Z,42.6
2018-08-10T03:20:08.750Z,42.6
2018-08-10T03:20:58.289Z,42.6
2018-08-10T03:21:49.015Z,42.6
2018-08-10T03:22:38.742Z,42.6
2018-08-10T03:23:28.737Z,42.6
2018-08-10T03:24:18.788Z,42.6
2018-08-10T03:25:08.689Z,42.5
2018-08-10T03:25:59.162Z,42.5
2018-08-10T03:26:48.605Z,42.5
2018-08-10T03:27:38.617Z,42.5
2018-08-10T03:28:28.860Z,42.5
2018-08-10T03:29:18.711Z,42.5
2018-08-10T03:30:09.384Z,42.5
2018-08-10T03:30:58.536Z,42.5
2018-08-10T03:31:48.673Z,42.5
2018-08-10T03:32:39.458Z,42.5
2018-08-10T03:33:29.717Z,42.4
2018-08-10T03:34:19.246Z,42.4
2018-08-10T03:35:09.918Z,42.4
2018-08-10T03:35:59.913Z,42.4
2018-08-10T03:36:50.014Z,42.4
2018-08-10T03:37:39.687Z,42.5
2018-08-10T03:38:30.129Z,42.4
2018-08-10T03:39:19.167Z,42.4
2018-08-10T03:40:09.761Z,42.4
2018-08-10T03:40:59.315Z,42.4
2018-08-10T03:41:49.394Z,42.4
2018-08-10T03:42:39.697Z,42.4
2018-08-10T03:43:30.043Z,42.4
2018-08-10T03:44:19.990Z,42.4
2018-08-10T03:45:10.094Z,42.4
2018-08-10T03:46:00.464Z,42.4
2018-08-10T03:46:50.925Z,42.4
2018-08-10T03:47:40.703Z,42.4
2018-08-10T03:48:30.067Z,42.4
2018-08-10T03:49:20.140Z,42.4
2018-08-10T03:50:10.035Z,42.4
2018-08-10T03:51:00.084Z,42.4
2018-08-10T03:51:50.422Z,42.4
2018-08-10T03:52:55.129Z,42.4
2018-08-10T03:53:45.996Z,42.4
2018-08-10T03:54:21.148Z,42.3
2018-08-10T03:55:11.292Z,42.4
2018-08-10T03:56:01.463Z,42.3
2018-08-10T03:56:50.958Z,42.3
2018-08-10T03:57:40.856Z,42.3
2018-08-10T03:58:30.633Z,42.3
2018-08-10T03:59:20.680Z,42.3
2018-08-10T04:00:11.449Z,42.3
2018-08-10T04:01:01.378Z,42.3
2018-08-10T04:01:51.217Z,42.3
2018-08-10T04:02:41.288Z,42.3
2018-08-10T04:03:31.048Z,42.3
2018-08-10T04:04:21.593Z,42.3
2018-08-10T04:05:11.632Z,42.3
2018-08-10T04:06:02.303Z,42.3
2018-08-10T04:06:51.814Z,42.3
2018-08-10T04:07:42.405Z,42.3
2018-08-10T04:08:32.198Z,42.2
2018-08-10T04:09:22.261Z,42.2
2018-08-10T04:10:11.831Z,42.3
2018-08-10T04:11:02.129Z,42.2
2018-08-10T04:11:52.761Z,42.3
2018-08-10T04:12:42.073Z,42.2
2018-08-10T04:13:46.987Z,42.2
2018-08-10T04:14:22.583Z,42.2
2018-08-10T04:15:12.545Z,42.2
2018-08-10T04:16:02.470Z,42.2
2018-08-10T04:16:52.762Z,42.2
2018-08-10T04:17:42.936Z,42.1
2018-08-10T04:18:32.675Z,42.1
2018-08-10T04:19:23.070Z,42.1
2018-08-10T04:20:12.520Z,42.1
2018-08-10T04:21:03.495Z,42.1
2018-08-10T04:21:52.897Z,42.1
2018-08-10T04:22:43.393Z,42.1
2018-08-10T04:23:33.353Z,42.1
2018-08-10T04:24:23.170Z,42.1
2018-08-10T04:25:13.265Z,42.1
2018-08-10T04:26:03.325Z,42.1
2018-08-10T04:26:53.364Z,42.1
2018-08-10T04:27:43.728Z,42.1
2018-08-10T04:28:33.487Z,42.1
2018-08-10T04:29:23.597Z,42.1
2018-08-10T04:30:12.970Z,42.1
2018-08-10T05:06:59.068Z,41.9
2018-08-10T05:07:48.563Z,41.9
2018-08-10T05:08:39.197Z,41.9
2018-08-10T05:09:29.553Z,41.9
2018-08-10T05:10:18.998Z,41.9
2018-08-10T05:11:08.567Z,41.8
2018-08-10T05:11:59.754Z,41.8
2018-08-10T05:12:49.559Z,41.8
2018-08-10T05:13:39.251Z,41.8
2018-08-10T05:14:29.630Z,41.8
2018-08-10T05:15:19.104Z,41.8
2018-08-10T05:16:09.752Z,41.8
2018-08-10T05:16:59.811Z,41.8
2018-08-10T05:17:48.444Z,41.8
2018-08-10T05:18:40.267Z,41.8
2018-08-10T05:19:29.986Z,41.8
2018-08-10T05:20:20.085Z,41.8
2018-08-10T05:21:10.130Z,41.8
2018-08-10T05:22:00.239Z,41.8
2018-08-10T05:22:50.265Z,41.8
2018-08-10T05:23:40.047Z,41.8
2018-08-10T05:24:30.148Z,41.8
2018-08-10T05:25:19.876Z,41.8
2018-08-10T05:26:10.262Z,41.8
2018-08-10T05:26:59.746Z,41.8
2018-08-10T05:27:50.949Z,41.8
2018-08-10T05:28:41.001Z,41.8
2018-08-10T05:29:30.499Z,41.8
2018-08-10T05:30:20.876Z,41.8
2018-08-10T05:31:10.621Z,41.8
2018-08-10T05:32:01.290Z,41.8
2018-08-10T05:32:51.056Z,41.8
2018-08-10T05:33:41.379Z,41.8
2018-08-10T05:34:30.304Z,41.8
2018-08-10T05:35:20.919Z,41.8
2018-08-10T05:36:10.571Z,41.7
2018-08-10T05:37:00.774Z,41.8
2018-08-10T05:37:51.454Z,41.7
2018-08-10T05:38:41.487Z,41.7
2018-08-10T05:39:30.419Z,41.7
2018-08-10T05:40:20.465Z,41.8
2018-08-10T05:41:11.406Z,41.7
2018-08-10T05:42:02.011Z,41.7
2018-08-10T05:42:51.550Z,41.7
2018-08-10T05:43:41.045Z,41.7
2018-08-10T05:44:31.666Z,41.7
2018-08-10T05:45:20.554Z,41.7
2018-08-10T05:46:11.864Z,41.7
2018-08-10T05:47:03.773Z,41.7
2018-08-10T05:47:50.841Z,35.1
2018-08-10T05:48:42.292Z,33.6
2018-08-10T05:49:31.754Z,37.4
2018-08-10T05:50:22.098Z,38.3
2018-08-10T05:51:12.528Z,38.6
2018-08-10T05:52:02.618Z,38.6
2018-08-10T05:52:52.938Z,38.6
2018-08-10T05:53:42.402Z,38.7
2018-08-10T05:54:32.980Z,38.8
2018-08-10T05:55:22.523Z,38.9
2018-08-10T05:56:12.846Z,39
2018-08-10T05:57:02.682Z,39.1
2018-08-10T05:57:52.414Z,39.2
2018-08-10T05:58:42.812Z,39.3
2018-08-10T05:59:32.536Z,39.3
2018-08-10T06:00:23.469Z,39.3
2018-08-10T06:01:13.250Z,39.4
2018-08-10T06:02:03.583Z,39.3
2018-08-10T06:02:53.674Z,37.4
2018-08-10T06:03:44.732Z,40.3
2018-08-10T06:04:33.509Z,41.2
2018-08-10T06:05:23.266Z,40.9
2018-08-10T06:06:13.920Z,40.4
2018-08-10T06:07:03.673Z,39.5
2018-08-10T06:07:53.751Z,38.7
2018-08-10T06:08:43.553Z,38.2
2018-08-10T06:09:34.165Z,38.1
2018-08-10T06:10:24.255Z,38.3
2018-08-10T06:11:13.717Z,38.5
2018-08-10T06:12:04.344Z,38.6
2018-08-10T06:12:54.438Z,38.6
2018-08-10T06:13:44.464Z,38.6
2018-08-10T06:14:34.246Z,38.6
2018-08-10T06:15:24.853Z,38.7
2018-08-10T06:16:13.822Z,38.8
2018-08-10T06:17:03.621Z,38.9
2018-08-10T06:17:54.247Z,39.1
2018-08-10T06:18:44.585Z,39.3
2018-08-10T06:19:36.360Z,39.4
2018-08-10T06:20:24.422Z,39.5
2018-08-10T06:21:14.507Z,39.6
2018-08-10T06:22:04.320Z,39.8
2018-08-10T06:22:55.537Z,39.9
2018-08-10T06:23:44.147Z,40.1
2018-08-10T06:24:34.225Z,40.2
2018-08-10T06:25:24.620Z,40.3
2018-08-10T06:26:15.464Z,40.4
2018-08-10T06:27:04.948Z,40.6
2018-08-10T06:27:57.152Z,40.7
2018-08-10T06:28:44.541Z,40.9
2018-08-10T06:29:35.734Z,41
2018-08-10T06:30:24.258Z,41.1
2018-08-10T06:31:14.779Z,41.3
2018-08-10T06:32:04.491Z,41.4
2018-08-10T06:32:55.721Z,41.6
2018-08-10T06:33:46.847Z,41.8
2018-08-10T06:34:35.882Z,41.9
2018-08-10T06:35:25.886Z,42.1
2018-08-10T06:36:15.957Z,42.2
2018-08-10T06:37:06.291Z,42.4
2018-08-10T06:37:55.795Z,42.5
2018-08-10T06:38:46.433Z,42.7
2018-08-10T06:39:35.640Z,42.8
2018-08-10T06:40:26.303Z,42.9
2018-08-10T06:41:15.481Z,43.1
2018-08-10T06:42:05.867Z,43.3
2018-08-10T06:42:56.488Z,43.4
2018-08-10T06:43:46.815Z,43.5
2018-08-10T06:44:36.903Z,43.6
2018-08-10T06:45:26.174Z,43.8
2018-08-10T06:46:15.283Z,43.9
2018-08-10T06:47:06.497Z,44.1
2018-08-10T06:47:56.615Z,44.3
2018-08-10T06:48:47.278Z,44.4
2018-08-10T06:49:36.435Z,44.5
2018-08-10T06:50:27.366Z,44.6
2018-08-10T06:51:18.414Z,44.8
2018-08-10T06:52:07.479Z,44.9
2018-08-10T06:52:56.651Z,45.1
2018-08-10T06:53:47.623Z,45.2
2018-08-10T06:54:37.337Z,45.3
2018-08-10T06:55:27.439Z,45.4
2018-08-10T06:56:18.579Z,45.6
2018-08-10T06:57:07.858Z,45.7
2018-08-10T06:57:57.336Z,45.8
2018-08-10T06:58:46.924Z,45.9
2018-08-10T06:59:37.276Z,46.1
2018-08-10T07:00:27.973Z,46.3
2018-08-10T07:01:17.896Z,46.4
2018-08-10T07:02:08.200Z,46.5
2018-08-10T07:02:58.053Z,46.6
2018-08-10T07:03:48.095Z,46.8
2018-08-10T07:04:37.600Z,46.9
2018-08-10T07:05:28.613Z,47
2018-08-10T07:06:18.041Z,47.1
2018-08-10T07:07:08.112Z,47.3
2018-08-10T07:07:58.965Z,47.4
2018-08-10T07:08:48.245Z,47.6
2018-08-10T07:09:38.845Z,47.8
2018-08-10T07:10:28.337Z,47.9
2018-08-10T07:11:19.031Z,48
2018-08-10T07:12:08.449Z,48.1
2018-08-10T07:12:58.306Z,48.3
2018-08-10T07:13:48.478Z,48.4
2018-08-10T07:14:39.270Z,48.4
2018-08-10T07:15:28.730Z,48.6
2018-08-10T07:16:19.399Z,48.8
2018-08-10T07:17:08.639Z,48.9
2018-08-10T07:17:58.339Z,49.1
2018-08-10T07:18:49.060Z,49.2
2018-08-10T07:19:38.791Z,49.3
2018-08-10T07:20:29.411Z,49.4
2018-08-10T07:21:18.890Z,49.6
2018-08-10T07:22:09.269Z,49.7
2018-08-10T07:22:59.590Z,49.8
2018-08-10T07:23:49.730Z,49.9
2018-08-10T07:24:39.443Z,50.1
2018-08-10T07:25:29.496Z,50.2
2018-08-10T07:26:20.127Z,50.3
2018-08-10T07:27:10.525Z,50.4
2018-08-10T07:28:00.043Z,50.6
2018-08-10T07:28:50.050Z,50.8
2018-08-10T07:29:40.348Z,50.9
2018-08-10T07:30:30.459Z,51
2018-08-10T07:31:20.207Z,51.2
2018-08-10T07:32:10.264Z,51.3
2018-08-10T07:33:00.139Z,51.4
2018-08-10T07:33:50.412Z,51.6
2018-08-10T07:34:40.805Z,51.8
2018-08-10T07:35:30.813Z,51.9
2018-08-10T07:36:20.651Z,52
2018-08-10T07:37:10.656Z,52.1
2018-08-10T07:38:00.734Z,52.3
2018-08-10T07:38:50.560Z,52.4
2018-08-10T07:39:40.034Z,52.6
2018-08-10T07:40:30.984Z,52.8
2018-08-10T07:41:21.034Z,52.9
2018-08-10T07:42:10.231Z,53
2018-08-10T07:43:01.182Z,53.2
2018-08-10T07:43:51.498Z,53.3
2018-08-10T07:44:40.780Z,53.5
2018-08-10T07:45:30.874Z,53.6
2018-08-10T07:46:21.591Z,53.8
2018-08-10T07:47:11.506Z,53.8
2018-08-10T07:48:01.836Z,53.9
2018-08-10T07:48:51.343Z,54.1
2018-08-10T07:49:41.690Z,54.2
2018-08-10T07:50:31.499Z,54.3
2018-08-10T07:51:21.540Z,54.5
2018-08-10T07:52:12.243Z,54.6
2018-08-10T07:53:00.733Z,54.8
2018-08-10T07:53:52.278Z,54.9
2018-08-10T07:54:42.076Z,55
2018-08-10T07:55:31.633Z,55.1
2018-08-10T07:56:21.393Z,55.3
2018-08-10T07:57:11.476Z,55.4
2018-08-10T07:58:02.015Z,55.5
2018-08-10T07:58:52.718Z,55.6
2018-08-10T07:59:42.154Z,55.8
2018-08-10T08:00:32.483Z,55.9
2018-08-10T08:01:22.927Z,56
2018-08-10T08:02:11.779Z,56.2
2018-08-10T08:03:02.138Z,56.3
2018-08-10T08:03:52.780Z,56.4
2018-08-10T08:04:42.257Z,56.6
2018-08-10T08:05:32.659Z,56.8
2018-08-10T08:06:22.805Z,56.9
2018-08-10T08:07:17.991Z,57.1
2018-08-10T08:08:03.583Z,57.2
2018-08-10T08:08:53.120Z,57.3
2018-08-10T08:09:43.526Z,57.4
2018-08-10T08:10:33.519Z,57.6
2018-08-10T08:11:23.315Z,57.7
2018-08-10T08:12:13.679Z,57.8
2018-08-10T08:13:03.319Z,57.9
2018-08-10T08:13:54.604Z,58.1
2018-08-10T08:14:42.494Z,58.3
2018-08-10T08:15:33.117Z,58.3
2018-08-10T08:16:23.199Z,58.4
2018-08-10T08:18:04.121Z,58.7
2018-08-10T08:18:53.389Z,58.8
2018-08-10T08:19:45.401Z,58.9
2018-08-10T08:20:34.101Z,59.1
2018-08-10T08:21:23.572Z,59.2
2018-08-10T08:22:14.278Z,59.3
2018-08-10T08:23:04.012Z,59.4
2018-08-10T08:23:53.871Z,59.6
2018-08-10T08:24:44.096Z,59.8
2018-08-10T08:25:33.717Z,59.9
2018-08-10T08:26:24.869Z,60.1
2018-08-10T08:27:15.756Z,60.2
2018-08-10T08:28:04.711Z,60.3
2018-08-10T08:28:54.447Z,60.4
2018-08-10T08:29:44.538Z,60.5
2018-08-10T08:30:34.881Z,60.6
2018-08-10T08:31:24.393Z,60.8
2018-08-10T08:32:14.221Z,60.9
2018-08-10T08:33:05.019Z,60.9
2018-08-10T08:33:55.136Z,61
2018-08-10T08:34:46.737Z,61.1
2018-08-10T08:35:33.776Z,61.3
2018-08-10T08:36:25.331Z,61.3
2018-08-10T08:37:15.189Z,61.4
2018-08-10T08:38:05.479Z,61.6
2018-08-10T08:38:55.200Z,61.8
2018-08-10T08:39:45.572Z,61.9
2018-08-10T08:40:35.376Z,62
2018-08-10T08:41:24.544Z,62.1
2018-08-10T08:42:15.456Z,62.3
2018-08-10T08:43:05.883Z,62
2018-08-10T08:43:55.587Z,61.6
2018-08-10T08:44:45.130Z,61.6
2018-08-10T08:45:36.822Z,61.8
2018-08-10T08:46:28.886Z,61.4
2018-08-10T08:47:16.130Z,60.2
2018-08-10T08:48:06.218Z,59.2
2018-08-10T08:48:56.006Z,58.3
2018-08-10T08:49:45.577Z,57.9
2018-08-10T08:50:35.270Z,58.1
2018-08-10T08:51:26.793Z,58.9
2018-08-10T08:52:16.853Z,59.5
2018-08-10T08:53:06.051Z,59.2
2018-08-10T08:53:57.232Z,58.4
2018-08-10T08:54:47.126Z,57.6
2018-08-10T08:55:37.114Z,57.2
2018-08-10T08:56:26.298Z,57.1
2018-08-10T08:57:17.763Z,57.1
2018-08-10T08:58:07.008Z,57
2018-08-10T08:58:57.058Z,56.8
2018-08-10T08:59:47.125Z,56.6
2018-08-10T09:00:37.192Z,56.3
2018-08-10T09:01:27.004Z,56.3
2018-08-10T09:02:17.302Z,56.8
2018-08-10T09:03:06.809Z,57.9
2018-08-10T09:03:56.874Z,59.4
2018-08-10T09:21:14.018Z,57.5
2018-08-10T09:22:04.590Z,57.3
2018-08-10T09:22:54.135Z,57.9
2018-08-10T09:23:44.431Z,59.2
2018-08-10T09:24:34.478Z,60.4
2018-08-10T09:25:24.333Z,60.3
2018-08-10T09:26:14.292Z,59.3
2018-08-10T09:27:06.020Z,58.4
2018-08-10T09:27:55.070Z,58.1
2018-08-10T09:28:45.071Z,58.1
2018-08-10T09:29:35.403Z,57.9
2018-08-10T09:30:24.951Z,57.6
2018-08-10T09:31:14.519Z,57.3
2018-08-10T09:32:05.377Z,57
2018-08-10T09:32:55.026Z,57.1
2018-08-10T09:33:45.310Z,57.4
2018-08-10T09:34:35.870Z,58.1
2018-08-10T09:35:25.594Z,58.3
2018-08-10T09:36:15.979Z,57.9
2018-08-10T09:37:06.014Z,57.3
2018-08-10T09:37:55.828Z,56.7
2018-08-10T09:38:45.971Z,56.4
2018-08-10T09:39:35.344Z,56.4
2018-08-10T09:40:25.920Z,57.3
2018-08-10T09:41:15.764Z,58.3
2018-08-10T09:42:06.544Z,59.3
2018-08-10T09:42:56.045Z,60.2
2018-08-10T09:43:51.808Z,60.6
2018-08-10T09:44:34.913Z,60.2
2018-08-10T09:45:25.972Z,60
2018-08-10T09:46:16.458Z,60.6
2018-08-10T09:47:05.982Z,61.4
2018-08-10T09:47:56.386Z,62
2018-08-10T09:48:46.373Z,62.5
2018-08-10T09:49:36.769Z,62.8
2018-08-10T09:50:26.613Z,63
2018-08-10T09:51:17.083Z,63.2
2018-08-10T09:52:05.896Z,63.4
2018-08-10T09:52:57.252Z,63.6
2018-08-10T09:53:47.287Z,63.8
2018-08-10T09:54:36.853Z,64
2018-08-10T09:55:26.882Z,64.2
2018-08-10T09:56:16.651Z,64.3
2018-08-10T09:57:07.009Z,64.5
2018-08-10T09:57:57.663Z,64.6
2018-08-10T09:58:46.646Z,64.8
2018-08-10T09:59:37.180Z,64.8
2018-08-10T10:00:27.580Z,64.9
2018-08-10T10:01:17.377Z,65
2018-08-10T10:02:07.431Z,65.1
2018-08-10T10:02:57.764Z,65.1
2018-08-10T10:03:48.117Z,65.2
2018-08-10T10:04:37.337Z,65.3
2018-08-10T10:05:28.270Z,65.4
2018-08-10T10:06:17.253Z,65.4
2018-08-10T10:07:08.391Z,65.4
2018-08-10T10:07:57.862Z,65.6
2018-08-10T10:08:48.241Z,65.6
2018-08-10T10:09:38.433Z,65.8
2018-08-10T10:10:28.085Z,65.8
2018-08-10T10:11:18.658Z,65.8
2018-08-10T10:12:08.499Z,65.9
2018-08-10T10:12:58.541Z,65.9
2018-08-10T10:13:48.883Z,65.9
2018-08-10T10:14:38.475Z,65.9
2018-08-10T10:15:28.263Z,66
2018-08-10T10:16:19.211Z,66.1
2018-08-10T10:17:09.000Z,66.1
2018-08-10T10:17:59.306Z,66.1
2018-08-10T10:18:49.127Z,66.2
2018-08-10T10:19:37.993Z,66.3
2018-08-10T10:20:28.509Z,66.3
2018-08-10T10:21:19.643Z,66.3
2018-08-10T10:22:09.370Z,66.4
2018-08-10T10:22:59.814Z,66.4
2018-08-10T10:23:49.201Z,66.4
2018-08-10T10:24:39.532Z,66.5
2018-08-10T10:25:29.328Z,66.5
2018-08-10T10:26:19.409Z,66.6
2018-08-10T10:27:09.956Z,66.6
2018-08-10T10:27:59.100Z,66.7
2018-08-10T10:28:49.293Z,66.8
2018-08-10T10:29:39.962Z,66.8
2018-08-10T10:30:30.048Z,66.9
2018-08-10T10:31:20.110Z,66.9
2018-08-10T10:32:09.569Z,67
2018-08-10T10:33:00.010Z,67.1
2018-08-10T10:33:49.980Z,67.1
2018-08-10T10:34:40.665Z,67.1
2018-08-10T10:35:30.598Z,67.2
2018-08-10T10:36:20.669Z,67.2
2018-08-10T10:37:10.443Z,67.2
2018-08-10T10:38:00.540Z,67.2
2018-08-10T10:38:49.231Z,67.3
2018-08-10T10:39:40.912Z,67.3
2018-08-10T10:40:30.407Z,67.3
2018-08-10T10:41:21.038Z,67.4
2018-08-10T10:42:10.622Z,67.4
2018-08-10T10:43:01.190Z,67.4
2018-08-10T10:43:50.437Z,67.4
2018-08-10T10:44:40.207Z,67.5
2018-08-10T10:45:31.116Z,67.6
2018-08-10T10:46:21.458Z,67.6
2018-08-10T10:47:11.528Z,67.7
2018-08-10T10:48:01.007Z,67.7
2018-08-10T10:48:52.983Z,67.8
2018-08-10T10:49:40.331Z,67.9
2018-08-10T10:50:31.505Z,67.9
2018-08-10T10:51:21.258Z,67.9
2018-08-10T10:52:11.626Z,68
2018-08-10T10:53:01.443Z,68
2018-08-10T10:53:51.980Z,68
2018-08-10T10:54:41.275Z,68.1
2018-08-10T10:55:32.117Z,68.1
2018-08-10T10:56:21.825Z,68.2
2018-08-10T10:57:11.990Z,68.2
2018-08-10T10:58:02.065Z,68.3
2018-08-10T10:58:51.595Z,68.4
2018-08-10T10:59:41.915Z,68.4
2018-08-10T11:00:31.700Z,68.4
2018-08-10T11:01:22.588Z,68.4
2018-08-10T11:02:12.368Z,68.5
2018-08-10T11:03:02.726Z,68.5
2018-08-10T11:03:52.219Z,68.5
2018-08-10T11:04:42.527Z,68.5
2018-08-10T11:05:32.440Z,68.6
2018-08-10T11:06:23.795Z,68.6
2018-08-10T11:07:13.051Z,68.6
2018-08-10T11:08:02.844Z,68.6
2018-08-10T11:08:52.853Z,68.6
2018-08-10T11:09:42.926Z,68.7
2018-08-10T11:10:33.012Z,68.7
2018-08-10T11:11:23.066Z,68.7
2018-08-10T11:12:13.403Z,68.6
2018-08-10T11:13:02.965Z,68.7
2018-08-10T11:13:53.002Z,68.8
2018-08-10T11:14:42.799Z,68.8
2018-08-10T11:15:33.446Z,68.8
2018-08-10T11:16:23.176Z,68.9
2018-08-10T11:17:13.525Z,68.9
2018-08-10T11:18:04.754Z,68.9
2018-08-10T11:18:53.731Z,68.9
2018-08-10T11:19:43.205Z,68.9
2018-08-10T11:20:33.883Z,68.9
2018-08-10T11:21:23.637Z,68.9
2018-08-10T11:22:14.005Z,68.9
2018-08-10T11:23:03.496Z,68.9
2018-08-10T11:23:54.288Z,68.9
2018-08-10T11:24:44.190Z,68.8
2018-08-10T11:25:34.890Z,68.8
2018-08-10T11:26:24.341Z,68.8
2018-08-10T11:27:13.543Z,68.9
2018-08-10T11:28:04.724Z,68.9
2018-08-10T11:28:54.233Z,68.9
2018-08-10T11:29:44.281Z,68.9
2018-08-10T11:30:34.945Z,68.9
2018-08-10T11:31:24.450Z,68.9
2018-08-10T11:32:14.326Z,69
2018-08-10T11:33:05.156Z,69
2018-08-10T11:33:54.611Z,69.1
2018-08-10T11:34:44.952Z,69.1
2018-08-10T11:35:34.483Z,69.1
2018-08-10T11:36:24.866Z,69.2
2018-08-10T11:37:15.434Z,69.3
2018-08-10T11:38:04.938Z,69.3
2018-08-10T11:38:55.309Z,69.3
2018-08-10T11:39:44.851Z,69.3
2018-08-10T11:40:34.994Z,69.3
2018-08-10T11:41:25.405Z,69.2
2018-08-10T11:42:15.612Z,69.1
2018-08-10T11:43:05.627Z,69
2018-08-10T11:43:55.370Z,69
2018-08-10T11:44:45.748Z,68.9
2018-08-10T11:45:35.556Z,68.9
2018-08-10T11:46:26.105Z,68.9
2018-08-10T11:47:15.933Z,68.9
2018-08-10T11:48:05.984Z,68.9
2018-08-10T11:48:56.102Z,68.9
2018-08-10T11:49:45.856Z,68.9
2018-08-10T11:50:35.360Z,69
2018-08-10T11:51:26.239Z,69
2018-08-10T11:52:16.301Z,69
2018-08-10T11:53:06.092Z,69
2018-08-10T11:53:56.463Z,69
2018-08-10T11:54:46.220Z,69.1
2018-08-10T11:55:36.373Z,69
2018-08-10T11:56:26.470Z,69.1
2018-08-10T11:57:16.349Z,69.1
2018-08-10T11:58:06.561Z,69.1
2018-08-10T11:58:57.145Z,69.1
2018-08-10T11:59:46.369Z,69
2018-08-10T12:00:36.478Z,69.1
2018-08-10T12:01:26.768Z,69.1
2018-08-10T12:02:16.543Z,69.1
2018-08-10T12:03:07.573Z,69.1
2018-08-10T12:03:56.685Z,69.1
2018-08-10T12:04:47.023Z,69.1
2018-08-10T12:05:37.112Z,69.1
2018-08-10T12:06:27.170Z,69.1
2018-08-10T12:07:17.545Z,69
2018-08-10T12:08:07.580Z,69.1
2018-08-10T12:08:57.919Z,69
2018-08-10T12:09:47.665Z,69
2018-08-10T12:10:38.057Z,69
2018-08-10T12:11:26.984Z,69.1
2018-08-10T12:12:17.563Z,69.1
2018-08-10T12:13:07.946Z,69.1
2018-08-10T12:13:57.986Z,69.1
2018-08-10T12:14:47.808Z,69.1
2018-08-10T12:15:38.392Z,69.1
2018-08-10T12:16:28.200Z,69.2
2018-08-10T12:17:17.703Z,69.2
2018-08-10T12:18:08.074Z,69.2
2018-08-10T12:18:58.632Z,69.2
2018-08-10T12:19:48.239Z,69.3
2018-08-10T12:20:38.820Z,69.3